createdAt,value
2022-09-02T00:00:14.030Z,7.75
2022-09-02T00:02:31.308Z,6.82
2022-09-02T00:04:48.601Z,9.05
2022-09-02T00:07:05.532Z,5.55
2022-09-02T00:09:22.630Z,5.50
2022-09-02T00:11:40.010Z,5.82
2022-09-02T00:13:57.134Z,7.32
2022-09-02T00:16:14.468Z,7.90
2022-09-02T00:18:31.862Z,6.18
2022-09-02T00:20:48.922Z,6.97
2022-09-02T00:23:05.893Z,6.38
2022-09-02T00:25:22.995Z,6.47
2022-09-02T00:27:39.989Z,8.07
2022-09-02T00:29:57.303Z,6.60
2022-09-02T00:32:14.333Z,8.43
2022-09-02T00:34:31.668Z,5.97
2022-09-02T00:36:48.702Z,5.97
2022-09-02T00:39:05.713Z,5.43
2022-09-02T00:41:22.975Z,5.80
2022-09-02T00:43:40.048Z,6.22
2022-09-02T00:45:57.196Z,5.85
2022-09-02T00:48:14.605Z,7.90
2022-09-02T00:50:32.505Z,6.28
2022-09-02T00:52:49.535Z,7.28
2022-09-02T00:55:06.867Z,8.85
2022-09-02T00:57:23.903Z,6.18
2022-09-02T00:59:40.874Z,6.15
2022-09-02T01:01:57.930Z,8.15
2022-09-02T01:04:15.098Z,6.10
2022-09-02T01:06:32.357Z,5.50
2022-09-02T01:08:49.365Z,8.07
2022-09-02T01:11:06.513Z,6.45
2022-09-02T01:13:24.903Z,5.80
2022-09-02T01:15:41.979Z,6.10
2022-09-02T01:18:00.182Z,9.80
2022-09-02T01:20:17.475Z,8.13
2022-09-02T01:22:35.467Z,6.13
2022-09-02T01:24:52.466Z,7.85
2022-09-02T01:27:09.727Z,6.43
2022-09-02T01:29:27.044Z,5.97
2022-09-02T01:31:44.093Z,6.93
2022-09-02T01:34:01.126Z,6.50
2022-09-02T01:36:18.139Z,5.43
2022-09-02T01:38:35.466Z,6.90
2022-09-02T01:40:55.108Z,7.70
2022-09-02T01:43:12.131Z,6.50
2022-09-02T01:45:29.448Z,8.15
2022-09-02T01:47:46.829Z,6.50
2022-09-02T01:50:04.122Z,6.65
2022-09-02T01:52:21.361Z,6.65
2022-09-02T01:54:39.712Z,5.50
2022-09-02T01:56:57.632Z,5.90
2022-09-02T01:59:14.687Z,6.20
2022-09-02T02:01:32.113Z,6.00
2022-09-02T02:03:49.218Z,8.15
2022-09-02T02:06:06.159Z,6.28
2022-09-02T02:08:23.121Z,6.45
2022-09-02T02:10:40.357Z,6.03
2022-09-02T02:12:57.583Z,6.10
2022-09-02T02:15:14.601Z,7.25
2022-09-02T02:17:31.639Z,5.63
2022-09-02T02:19:48.588Z,6.00
2022-09-02T02:22:05.493Z,5.80
2022-09-02T02:24:23.270Z,5.88
2022-09-02T02:26:40.223Z,6.80
2022-09-02T02:28:57.300Z,6.00
2022-09-02T02:31:14.651Z,5.97
2022-09-02T02:33:36.265Z,6.72
2022-09-02T02:35:55.511Z,6.97
2022-09-02T02:38:14.326Z,6.80
2022-09-02T02:40:31.772Z,6.18
2022-09-02T02:42:49.657Z,7.38
2022-09-02T02:45:06.719Z,6.30
2022-09-02T02:47:25.026Z,6.20
2022-09-02T02:49:42.080Z,7.88
2022-09-02T02:51:59.088Z,5.68
2022-09-02T02:54:16.117Z,5.65
2022-09-02T02:56:33.147Z,6.32
2022-09-02T02:58:50.190Z,6.90
2022-09-02T03:01:07.266Z,5.88
2022-09-02T03:03:24.178Z,6.78
2022-09-02T03:05:41.279Z,6.13
2022-09-02T03:07:58.448Z,6.30
2022-09-02T03:10:15.512Z,8.07
2022-09-02T03:12:32.427Z,6.22
2022-09-02T03:14:49.505Z,6.20
2022-09-02T03:17:07.441Z,6.55
2022-09-02T03:19:24.503Z,6.90
2022-09-02T03:21:41.466Z,16.15
2022-09-02T03:23:58.387Z,6.03
2022-09-02T03:26:15.457Z,6.18
2022-09-02T03:28:36.133Z,6.65
2022-09-02T03:30:53.418Z,6.85
2022-09-02T03:33:10.387Z,6.40
2022-09-02T03:35:27.453Z,7.53
2022-09-02T03:37:44.688Z,6.63
2022-09-02T03:40:01.927Z,7.45
2022-09-02T03:42:19.704Z,6.50
2022-09-02T03:44:36.875Z,7.78
2022-09-02T03:46:53.863Z,6.53
2022-09-02T03:49:10.922Z,8.63
2022-09-02T03:51:27.996Z,5.57
2022-09-02T03:53:45.101Z,6.40
2022-09-02T03:56:02.414Z,6.00
2022-09-02T03:58:19.501Z,6.28
2022-09-02T04:00:36.561Z,6.10
2022-09-02T04:02:53.606Z,6.28
2022-09-02T04:05:15.912Z,5.50
2022-09-02T04:07:33.958Z,7.90
2022-09-02T04:09:51.291Z,7.78
2022-09-02T04:12:08.344Z,7.93
2022-09-02T04:14:25.658Z,6.35
2022-09-02T04:16:42.636Z,7.25
2022-09-02T04:18:59.680Z,5.75
2022-09-02T04:21:16.744Z,6.72
2022-09-02T04:23:34.010Z,7.45
2022-09-02T04:25:51.066Z,7.13
2022-09-02T04:28:08.084Z,5.72
2022-09-02T04:30:25.037Z,7.55
2022-09-02T04:32:42.119Z,7.65
2022-09-02T04:35:02.536Z,6.00
2022-09-02T04:37:19.836Z,5.90
2022-09-02T04:39:36.871Z,6.10
2022-09-02T04:41:54.948Z,6.07
2022-09-02T04:44:11.909Z,7.38
2022-09-02T04:46:34.479Z,6.43
2022-09-02T04:48:52.070Z,6.25
2022-09-02T04:51:09.365Z,6.40
2022-09-02T04:53:26.953Z,7.10
2022-09-02T04:55:44.270Z,6.15
2022-09-02T04:58:01.295Z,7.47
2022-09-02T05:00:19.315Z,6.90
2022-09-02T05:02:36.456Z,6.10
2022-09-02T05:04:53.526Z,6.28
2022-09-02T05:07:11.544Z,6.07
2022-09-02T05:09:30.283Z,7.40
2022-09-02T05:11:47.399Z,6.68
2022-09-02T05:14:04.353Z,6.15
2022-09-02T05:16:21.748Z,7.43
2022-09-02T05:18:40.087Z,7.80
2022-09-02T05:20:57.053Z,7.43
2022-09-02T05:23:14.124Z,7.97
2022-09-02T05:25:31.431Z,7.88
2022-09-02T05:27:48.549Z,5.82
2022-09-02T05:30:05.657Z,6.40
2022-09-02T05:32:22.702Z,6.10
2022-09-02T05:34:40.501Z,6.05
2022-09-02T05:36:57.459Z,7.38
2022-09-02T05:39:16.092Z,8.65
2022-09-02T05:41:33.428Z,8.20
2022-09-02T05:43:50.658Z,7.32
2022-09-02T05:46:08.119Z,6.15
2022-09-02T05:48:25.160Z,6.57
2022-09-02T05:50:42.276Z,6.63
2022-09-02T05:53:03.254Z,6.03
2022-09-02T05:55:20.276Z,6.22
2022-09-02T05:57:37.275Z,5.95
2022-09-02T05:59:54.601Z,6.50
2022-09-02T06:02:11.686Z,7.47
2022-09-02T06:04:28.794Z,6.97
2022-09-02T06:06:45.880Z,7.43
2022-09-02T06:09:03.126Z,6.80
2022-09-02T06:11:20.438Z,7.55
2022-09-02T06:13:37.501Z,6.45
2022-09-02T06:15:55.645Z,8.15
2022-09-02T06:18:12.722Z,7.22
2022-09-02T06:20:31.408Z,7.53
2022-09-02T06:22:48.335Z,8.93
2022-09-02T06:25:05.353Z,6.07
2022-09-02T06:27:22.623Z,8.38
2022-09-02T06:29:39.788Z,8.30
2022-09-02T06:31:56.752Z,6.15
2022-09-02T06:34:13.732Z,6.32
2022-09-02T06:36:31.067Z,5.90
2022-09-02T06:38:48.049Z,7.50
2022-09-02T06:41:06.035Z,6.15
2022-09-02T06:43:23.135Z,5.47
2022-09-02T06:45:40.245Z,5.25
2022-09-02T06:47:57.858Z,4.65
2022-09-02T06:50:14.911Z,5.30
2022-09-02T06:52:31.986Z,6.97
2022-09-02T06:54:49.280Z,5.50
2022-09-02T06:57:06.223Z,4.28
2022-09-02T06:59:23.502Z,5.13
2022-09-02T07:01:40.703Z,7.50
2022-09-02T07:03:57.774Z,6.35
2022-09-02T07:06:15.064Z,5.03
2022-09-02T07:08:32.305Z,6.00
2022-09-02T07:10:49.663Z,5.05
2022-09-02T07:13:06.692Z,7.47
2022-09-02T07:15:23.689Z,4.90
2022-09-02T07:17:40.672Z,4.60
2022-09-02T07:19:57.592Z,5.35
2022-09-02T07:22:14.893Z,5.07
2022-09-02T07:24:36.846Z,6.10
2022-09-02T07:26:55.461Z,6.25
2022-09-02T07:29:13.330Z,4.30
2022-09-02T07:31:30.313Z,5.00
2022-09-02T07:33:49.976Z,5.55
2022-09-02T07:36:10.981Z,4.15
2022-09-02T07:38:29.523Z,4.55
2022-09-02T07:40:46.619Z,4.45
2022-09-02T07:43:03.788Z,12.38
2022-09-02T07:45:21.154Z,6.07
2022-09-02T07:47:38.216Z,4.50
2022-09-02T07:52:32.171Z,4.80
2022-09-02T07:54:49.536Z,6.38
2022-09-02T07:57:06.931Z,5.00
2022-09-02T07:59:24.005Z,3.42
2022-09-02T08:04:06.155Z,7.78
2022-09-02T08:06:33.677Z,4.20
2022-09-02T08:08:51.934Z,4.10
2022-09-02T08:11:09.015Z,4.75
2022-09-02T08:13:27.039Z,4.13
2022-09-02T08:15:44.675Z,4.20
2022-09-02T08:18:02.602Z,5.05
2022-09-02T08:20:19.614Z,4.25
2022-09-02T08:22:37.942Z,3.78
2022-09-02T08:24:54.958Z,6.50
2022-09-02T08:27:11.871Z,5.05
2022-09-02T08:29:28.801Z,3.92
2022-09-02T08:31:46.933Z,5.32
2022-09-02T08:34:05.945Z,3.22
2022-09-02T08:36:23.278Z,7.88
2022-09-02T08:38:40.298Z,5.03
2022-09-02T08:40:57.421Z,2.90
2022-09-02T08:43:14.589Z,3.50
2022-09-02T08:45:31.776Z,3.58
2022-09-02T08:47:48.914Z,2.55
2022-09-02T08:50:06.244Z,3.20
2022-09-02T08:52:24.343Z,4.22
2022-09-02T08:54:41.436Z,4.32
2022-09-02T08:56:58.397Z,8.13
2022-09-02T08:59:15.327Z,9.10
2022-09-02T09:01:32.408Z,2.75
2022-09-02T09:03:49.530Z,5.97
2022-09-02T09:06:06.876Z,3.45
2022-09-02T09:08:23.902Z,5.63
2022-09-02T09:10:40.934Z,4.88
2022-09-02T09:12:58.926Z,4.35
2022-09-02T09:15:17.743Z,3.88
2022-09-02T09:17:34.806Z,7.65
2022-09-02T09:19:52.159Z,2.80
2022-09-02T09:22:09.446Z,3.03
2022-09-02T09:24:26.797Z,6.70
2022-09-02T09:26:43.752Z,4.32
2022-09-02T09:29:00.815Z,4.35
2022-09-02T09:31:18.084Z,2.30
2022-09-02T09:33:35.545Z,6.47
2022-09-02T09:35:52.487Z,2.75
2022-09-02T09:38:09.401Z,3.72
2022-09-02T09:40:26.535Z,4.00
2022-09-02T09:42:49.140Z,2.83
2022-09-02T09:45:07.166Z,2.53
2022-09-02T09:47:24.512Z,4.07
2022-09-02T09:49:42.756Z,3.78
2022-09-02T09:51:59.675Z,2.72
2022-09-02T09:54:16.677Z,3.47
2022-09-02T09:56:37.533Z,2.17
2022-09-02T09:58:55.070Z,4.53
2022-09-02T10:01:13.237Z,5.35
2022-09-02T10:03:33.027Z,4.68
2022-09-02T10:05:50.505Z,3.00
2022-09-02T10:08:15.132Z,4.28
2022-09-02T10:10:32.678Z,2.67
2022-09-02T10:12:49.756Z,4.55
2022-09-02T10:15:06.960Z,3.08
2022-09-02T10:17:23.883Z,5.50
2022-09-02T10:19:41.010Z,5.68
2022-09-02T10:21:58.110Z,2.55
2022-09-02T10:24:15.348Z,2.42
2022-09-02T10:26:32.664Z,3.63
2022-09-02T10:28:51.919Z,2.45
2022-09-02T10:31:10.270Z,4.15
2022-09-02T10:33:27.213Z,2.35
2022-09-02T10:35:45.508Z,3.95
2022-09-02T10:38:02.776Z,3.45
2022-09-02T10:40:19.883Z,4.13
2022-09-02T10:42:37.234Z,3.28
2022-09-02T10:44:57.027Z,3.50
2022-09-02T10:47:15.945Z,7.13
2022-09-02T10:49:33.255Z,3.90
2022-09-02T10:51:50.213Z,3.25
2022-09-02T10:54:07.562Z,2.97
2022-09-02T10:56:24.547Z,4.65
2022-09-02T10:58:41.918Z,5.07
2022-09-02T11:01:00.201Z,3.05
2022-09-02T11:03:17.362Z,3.15
2022-09-02T11:05:34.674Z,1.92
2022-09-02T11:07:51.677Z,2.70
2022-09-02T11:10:08.775Z,5.78
2022-09-02T11:12:25.731Z,2.90
2022-09-02T11:14:43.339Z,3.60
2022-09-02T11:17:02.436Z,3.40
2022-09-02T11:19:19.978Z,2.85
2022-09-02T11:21:36.967Z,2.63
2022-09-02T11:23:54.393Z,3.35
2022-09-02T11:26:11.359Z,3.83
2022-09-02T11:28:28.491Z,2.90
2022-09-02T11:30:45.581Z,3.60
2022-09-02T11:33:02.722Z,2.20
2022-09-02T11:35:19.992Z,3.53
2022-09-02T11:37:37.249Z,2.90
2022-09-02T11:40:06.642Z,1.85
2022-09-02T11:42:31.488Z,4.35
2022-09-02T11:44:52.983Z,4.13
2022-09-02T11:47:10.310Z,2.78
2022-09-02T11:49:27.313Z,2.25
2022-09-02T11:51:44.361Z,3.50
2022-09-02T11:54:02.039Z,4.15
2022-09-02T11:56:21.889Z,5.45
2022-09-02T11:58:42.652Z,4.00
2022-09-02T12:00:59.951Z,3.22
2022-09-02T12:03:38.850Z,3.13
2022-09-02T12:05:54.353Z,3.60
2022-09-02T12:08:12.312Z,3.50
2022-09-02T12:10:29.248Z,5.38
2022-09-02T12:12:49.975Z,4.55
2022-09-02T12:15:08.397Z,5.13
2022-09-02T12:17:25.700Z,4.45
2022-09-02T12:19:43.378Z,2.13
2022-09-02T12:22:00.696Z,2.75
2022-09-02T12:24:17.652Z,4.75
2022-09-02T12:26:35.032Z,2.58
2022-09-02T12:28:52.032Z,2.60
2022-09-02T12:31:09.369Z,2.58
2022-09-02T12:33:26.345Z,2.42
2022-09-02T12:38:00.718Z,3.38
2022-09-02T12:40:17.759Z,4.65
2022-09-02T12:42:34.866Z,4.10
2022-09-02T12:44:54.987Z,4.78
2022-09-02T12:47:13.340Z,6.13
2022-09-02T12:49:30.356Z,5.45
2022-09-02T12:51:47.605Z,6.53
2022-09-02T12:54:04.540Z,2.55
2022-09-02T12:56:21.488Z,4.07
2022-09-02T12:58:38.765Z,3.92
2022-09-02T13:00:55.714Z,2.33
2022-09-02T13:03:13.845Z,4.28
2022-09-02T13:05:30.948Z,3.35
2022-09-02T13:07:48.285Z,4.22
2022-09-02T13:10:05.536Z,3.08
2022-09-02T13:12:22.756Z,3.30
2022-09-02T13:14:40.761Z,4.53
2022-09-02T13:17:05.064Z,5.93
2022-09-02T13:19:30.748Z,2.40
2022-09-02T13:21:47.773Z,2.08
2022-09-02T13:24:06.022Z,2.08
2022-09-02T13:26:45.480Z,5.13
2022-09-02T13:28:59.922Z,3.25
2022-09-02T13:31:16.928Z,3.22
2022-09-02T13:33:33.944Z,2.85
2022-09-02T13:35:51.039Z,3.58
2022-09-02T13:38:08.444Z,3.95
2022-09-02T13:40:25.572Z,2.40
2022-09-02T13:42:42.539Z,3.03
2022-09-02T13:44:59.519Z,2.92
2022-09-02T13:47:16.549Z,4.20
2022-09-02T13:49:37.462Z,3.03
2022-09-02T13:51:54.896Z,3.75
2022-09-02T13:54:23.262Z,4.53
2022-09-02T13:56:40.541Z,3.08
2022-09-02T13:58:57.622Z,2.50
2022-09-02T14:01:16.079Z,4.45
2022-09-02T14:03:33.799Z,1.52
2022-09-02T14:05:51.052Z,1.73
2022-09-02T14:08:09.321Z,2.50
2022-09-02T14:10:26.687Z,2.47
2022-09-02T14:12:43.735Z,2.38
2022-09-02T14:15:00.756Z,5.30
2022-09-02T14:17:18.031Z,3.13
2022-09-02T14:19:35.035Z,4.72
2022-09-02T14:21:52.109Z,6.63
2022-09-02T14:24:09.130Z,3.70
2022-09-02T14:26:26.416Z,4.15
2022-09-02T14:28:43.814Z,2.40
2022-09-02T14:31:01.186Z,2.75
2022-09-02T14:33:18.592Z,2.75
2022-09-02T14:35:35.659Z,3.60
2022-09-02T14:37:52.662Z,2.20
2022-09-02T14:40:12.000Z,5.45
2022-09-02T14:42:29.733Z,2.65
2022-09-02T14:44:46.827Z,3.35
2022-09-02T14:47:05.216Z,3.42
2022-09-02T14:49:22.424Z,2.20
2022-09-02T14:51:39.474Z,2.42
2022-09-02T14:53:56.714Z,4.97
2022-09-02T14:56:13.644Z,2.20
2022-09-02T14:58:30.681Z,4.30
2022-09-02T15:00:47.708Z,7.82
2022-09-02T15:03:04.605Z,3.22
2022-09-02T15:05:21.943Z,2.40
2022-09-02T15:07:40.178Z,4.30
2022-09-02T15:09:57.218Z,6.40
2022-09-02T15:12:14.305Z,1.50
2022-09-02T15:14:38.296Z,1.67
2022-09-02T15:16:55.397Z,1.95
2022-09-02T15:19:12.375Z,2.08
2022-09-02T15:21:29.662Z,2.38
2022-09-02T15:23:50.966Z,2.90
2022-09-02T15:26:08.233Z,4.07
2022-09-02T15:28:25.403Z,3.25
2022-09-02T15:30:42.536Z,1.60
2022-09-02T15:32:59.957Z,1.88
2022-09-02T15:35:17.036Z,2.03
2022-09-02T15:37:34.128Z,3.35
2022-09-02T15:39:51.165Z,3.35
2022-09-02T15:42:08.335Z,3.30
2022-09-02T15:44:25.367Z,1.80
2022-09-02T15:46:42.339Z,4.38
2022-09-02T15:49:02.444Z,2.35
2022-09-02T15:51:19.815Z,3.25
2022-09-02T15:53:36.892Z,3.30
2022-09-02T15:55:53.897Z,3.58
2022-09-02T15:58:11.285Z,1.50
2022-09-02T16:00:28.735Z,2.65
2022-09-02T16:02:46.126Z,5.55
2022-09-02T16:05:03.584Z,2.13
2022-09-02T16:07:21.500Z,1.63
2022-09-02T16:09:38.453Z,3.83
2022-09-02T16:11:55.555Z,2.95
2022-09-02T16:14:12.636Z,2.45
2022-09-02T16:16:29.906Z,3.85
2022-09-02T16:18:47.016Z,5.88
2022-09-02T16:21:04.325Z,2.42
2022-09-02T16:23:21.437Z,2.05
2022-09-02T16:25:38.489Z,3.58
2022-09-02T16:27:56.735Z,6.25
2022-09-02T16:30:13.774Z,3.03
2022-09-02T16:32:31.010Z,2.30
2022-09-02T16:34:48.092Z,3.00
2022-09-02T16:37:05.353Z,1.60
2022-09-02T16:39:22.766Z,2.85
2022-09-02T16:41:39.728Z,1.60
2022-09-02T16:43:56.840Z,3.38
2022-09-02T16:46:13.813Z,1.88
2022-09-02T16:48:30.782Z,5.13
2022-09-02T16:50:48.114Z,4.22
2022-09-02T16:53:05.203Z,3.72
2022-09-02T16:55:22.548Z,3.35
2022-09-02T16:57:40.518Z,3.42
2022-09-02T16:59:58.771Z,3.35
2022-09-02T17:02:16.881Z,2.83
2022-09-02T17:04:33.748Z,5.43
2022-09-02T17:06:50.841Z,3.88
2022-09-02T17:09:07.836Z,4.15
2022-09-02T17:11:25.167Z,3.47
2022-09-02T17:13:42.201Z,2.30
2022-09-02T17:15:59.494Z,2.20
2022-09-02T17:18:16.501Z,5.00
2022-09-02T17:20:33.761Z,2.28
2022-09-02T17:22:51.806Z,3.78
2022-09-02T17:25:09.117Z,2.50
2022-09-02T17:27:26.047Z,6.22
2022-09-02T17:29:50.406Z,2.83
2022-09-02T17:32:07.851Z,2.53
2022-09-02T17:34:24.872Z,1.30
2022-09-02T17:36:41.927Z,1.73
2022-09-02T17:38:58.971Z,4.50
2022-09-02T17:41:16.088Z,4.43
2022-09-02T17:43:34.375Z,2.38
2022-09-02T17:45:51.786Z,2.72
2022-09-02T17:48:34.756Z,3.72
2022-09-02T17:50:47.088Z,4.38
2022-09-02T17:53:04.475Z,4.90
2022-09-02T17:55:21.408Z,4.75
2022-09-02T17:57:42.700Z,6.88
2022-09-02T18:00:00.257Z,2.92
2022-09-02T18:02:18.297Z,4.85
2022-09-02T18:04:35.565Z,3.30
2022-09-02T18:06:52.873Z,3.15
2022-09-02T18:09:12.115Z,3.58
2022-09-02T18:11:31.592Z,3.72
2022-09-02T18:13:49.726Z,4.15
2022-09-02T18:16:11.641Z,2.40
2022-09-02T18:18:33.280Z,2.72
2022-09-02T18:20:51.332Z,1.92
2022-09-02T18:23:08.696Z,3.28
2022-09-02T18:25:26.020Z,3.65
2022-09-02T18:27:44.224Z,4.30
2022-09-02T18:30:01.358Z,1.77
2022-09-02T18:32:18.319Z,4.38
2022-09-02T18:34:35.394Z,3.03
2022-09-02T18:36:55.122Z,1.92
2022-09-02T18:39:12.486Z,3.53
2022-09-02T18:41:30.531Z,3.53
2022-09-02T18:43:47.858Z,1.95
2022-09-02T18:46:04.943Z,2.20
2022-09-02T18:48:23.003Z,2.58
2022-09-02T18:50:55.581Z,1.58
2022-09-02T18:53:12.681Z,2.45
2022-09-02T18:55:30.739Z,2.05
2022-09-02T18:57:47.879Z,3.50
2022-09-02T19:00:05.062Z,2.70
2022-09-02T19:02:22.288Z,3.35
2022-09-02T19:04:39.698Z,3.17
2022-09-02T19:06:57.010Z,3.20
2022-09-02T19:09:14.970Z,2.75
2022-09-02T19:11:32.010Z,4.30
2022-09-02T19:13:49.328Z,2.53
2022-09-02T19:16:06.629Z,3.10
2022-09-02T19:18:24.769Z,5.30
2022-09-02T19:20:42.148Z,5.25
2022-09-02T19:22:59.193Z,2.60
2022-09-02T19:25:16.133Z,5.88
2022-09-02T19:27:33.032Z,3.55
2022-09-02T19:29:50.097Z,6.50
2022-09-02T19:32:07.171Z,2.70
2022-09-02T19:34:24.315Z,2.20
2022-09-02T19:36:41.599Z,3.33
2022-09-02T19:38:58.553Z,4.85
2022-09-02T19:41:15.531Z,3.58
2022-09-02T19:43:32.492Z,3.63
2022-09-02T19:45:50.733Z,4.07
2022-09-02T19:48:09.060Z,6.85
2022-09-02T19:50:26.579Z,6.18
2022-09-02T19:52:43.502Z,5.20
2022-09-02T19:55:00.506Z,5.13
2022-09-02T19:57:18.244Z,3.08
2022-09-02T19:59:35.537Z,3.00
2022-09-02T20:01:52.434Z,3.90
2022-09-02T20:04:09.790Z,4.82
2022-09-02T20:06:26.862Z,3.00
2022-09-02T20:08:43.825Z,4.60
2022-09-02T20:11:01.127Z,4.10
2022-09-02T20:13:18.365Z,3.72
2022-09-02T20:15:35.506Z,4.30
2022-09-02T20:17:52.397Z,2.10
2022-09-02T20:20:09.469Z,3.85
2022-09-02T20:22:26.432Z,4.35
2022-09-02T20:24:43.728Z,3.72
2022-09-02T20:27:00.618Z,2.25
2022-09-02T20:29:17.891Z,2.08
2022-09-02T20:31:35.061Z,2.88
2022-09-02T20:33:53.896Z,3.72
2022-09-02T20:36:11.001Z,3.45
2022-09-02T20:38:28.988Z,4.32
2022-09-02T20:40:46.305Z,2.17
2022-09-02T20:43:03.344Z,6.50
2022-09-02T20:45:20.618Z,3.17
2022-09-02T20:47:37.874Z,4.70
2022-09-02T20:49:54.942Z,2.00
2022-09-02T20:52:11.970Z,3.85
2022-09-02T20:54:28.909Z,2.95
2022-09-02T20:56:46.837Z,2.30
2022-09-02T20:59:03.875Z,3.08
2022-09-02T21:01:21.211Z,2.58
2022-09-02T21:03:38.179Z,2.70
2022-09-02T21:05:55.111Z,3.65
2022-09-02T21:08:13.353Z,2.63
2022-09-02T21:10:30.422Z,3.30
2022-09-02T21:12:47.504Z,2.63
2022-09-02T21:15:04.510Z,3.40
2022-09-02T21:17:21.503Z,3.22
2022-09-02T21:19:38.527Z,3.65
2022-09-02T21:21:55.598Z,3.22
2022-09-02T21:24:12.567Z,3.15
2022-09-02T21:26:30.249Z,2.85
2022-09-02T21:28:47.570Z,2.40
2022-09-02T21:31:04.636Z,2.10
2022-09-02T21:33:21.636Z,3.28
2022-09-02T21:35:38.584Z,4.68
2022-09-02T21:37:55.579Z,3.42
2022-09-02T21:40:12.453Z,3.13
2022-09-02T21:42:29.436Z,2.80
2022-09-02T21:44:46.508Z,1.90
2022-09-02T21:47:03.443Z,3.92
2022-09-02T21:49:20.459Z,4.50
2022-09-02T21:51:37.524Z,2.00
2022-09-02T21:53:55.540Z,2.25
2022-09-02T21:56:12.879Z,2.10
2022-09-02T21:58:29.901Z,2.83
2022-09-02T22:00:47.242Z,2.67
2022-09-02T22:03:05.554Z,2.00
2022-09-02T22:05:22.527Z,5.93
2022-09-02T22:07:39.793Z,2.47
2022-09-02T22:09:56.854Z,2.55
2022-09-02T22:12:13.783Z,3.53
2022-09-02T22:14:30.752Z,2.90
2022-09-02T22:16:48.757Z,2.85
2022-09-02T22:19:06.150Z,3.45
2022-09-02T22:21:23.259Z,2.75
2022-09-02T22:23:40.231Z,1.85
2022-09-02T22:25:57.563Z,2.45
2022-09-02T22:28:14.634Z,3.25
2022-09-02T22:30:31.715Z,3.95
2022-09-02T22:32:48.772Z,3.25
2022-09-02T22:35:05.893Z,3.63
2022-09-02T22:37:23.147Z,2.72
2022-09-02T22:39:40.222Z,1.98
2022-09-02T22:41:57.871Z,4.70
2022-09-02T22:44:18.208Z,3.65
2022-09-02T22:46:35.379Z,4.22
2022-09-02T22:48:52.579Z,2.58
2022-09-02T22:51:09.588Z,2.15
2022-09-02T22:53:26.845Z,3.40
2022-09-02T22:55:43.923Z,2.28
2022-09-02T22:58:01.149Z,4.47
2022-09-02T23:00:18.037Z,2.45
2022-09-02T23:02:35.100Z,2.08
2022-09-02T23:04:53.136Z,5.68
2022-09-02T23:07:10.368Z,2.85
2022-09-02T23:09:27.297Z,2.38
2022-09-02T23:11:44.385Z,2.30
2022-09-02T23:14:01.480Z,3.67
2022-09-02T23:16:18.887Z,2.88
2022-09-02T23:18:35.945Z,5.90
2022-09-02T23:20:53.036Z,2.88
2022-09-02T23:23:10.092Z,2.22
2022-09-02T23:25:28.095Z,2.78
2022-09-02T23:27:46.121Z,3.78
2022-09-02T23:30:03.093Z,2.72
2022-09-02T23:32:20.441Z,3.47
2022-09-02T23:34:37.383Z,2.78
2022-09-02T23:36:55.332Z,4.28
2022-09-02T23:39:12.241Z,2.67
2022-09-02T23:41:33.238Z,2.17
2022-09-02T23:43:50.498Z,4.13
2022-09-02T23:46:07.883Z,6.10
2022-09-02T23:48:25.397Z,3.25
2022-09-02T23:50:42.797Z,3.15
2022-09-02T23:52:59.649Z,4.03
2022-09-02T23:55:16.762Z,3.33
2022-09-02T23:57:34.233Z,2.72
2022-09-02T23:59:51.640Z,4.78
